sensor_id;sensor_type;location;lat;lon;timestamp;pressure;altitude;pressure_sealevel;temperature;humidity
6208;BME280;3137;51.550;7.060;2024-03-08T00:01:41;101532.72;;;2.69;77.47
6208;BME280;3137;51.550;7.060;2024-03-08T00:04:07;101530.16;;;2.67;77.58
6208;BME280;3137;51.550;7.060;2024-03-08T00:06:34;101529.72;;;2.59;77.51
6208;BME280;3137;51.550;7.060;2024-03-08T00:09:00;101520.97;;;2.59;77.62
6208;BME280;3137;51.550;7.060;2024-03-08T00:11:27;101518.16;;;2.62;77.66
6208;BME280;3137;51.550;7.060;2024-03-08T00:13:53;101525.53;;;2.55;77.58
6208;BME280;3137;51.550;7.060;2024-03-08T00:16:20;101523.06;;;2.52;77.44
6208;BME280;3137;51.550;7.060;2024-03-08T00:18:46;101517.97;;;2.49;77.73
6208;BME280;3137;51.550;7.060;2024-03-08T00:21:13;101516.00;;;2.53;77.85
6208;BME280;3137;51.550;7.060;2024-03-08T00:23:41;101519.66;;;2.50;77.71
6208;BME280;3137;51.550;7.060;2024-03-08T00:26:08;101518.38;;;2.42;77.90
6208;BME280;3137;51.550;7.060;2024-03-08T00:28:34;101510.94;;;2.33;77.88
6208;BME280;3137;51.550;7.060;2024-03-08T00:31:01;101517.06;;;2.33;78.10
6208;BME280;3137;51.550;7.060;2024-03-08T00:33:27;101519.84;;;2.30;78.33
6208;BME280;3137;51.550;7.060;2024-03-08T00:35:54;101510.81;;;2.34;78.23
6208;BME280;3137;51.550;7.060;2024-03-08T00:38:20;101515.41;;;2.30;78.13
6208;BME280;3137;51.550;7.060;2024-03-08T00:40:47;101503.38;;;2.25;78.23
6208;BME280;3137;51.550;7.060;2024-03-08T00:43:13;101516.75;;;2.22;78.37
6208;BME280;3137;51.550;7.060;2024-03-08T00:45:39;101509.63;;;2.24;77.98
6208;BME280;3137;51.550;7.060;2024-03-08T00:48:08;101502.63;;;2.23;78.08
6208;BME280;3137;51.550;7.060;2024-03-08T00:50:35;101502.88;;;2.18;78.06
6208;BME280;3137;51.550;7.060;2024-03-08T00:53:02;101503.88;;;2.16;78.02
6208;BME280;3137;51.550;7.060;2024-03-08T00:55:28;101498.97;;;2.08;78.39
6208;BME280;3137;51.550;7.060;2024-03-08T00:57:55;101493.81;;;2.07;78.13
6208;BME280;3137;51.550;7.060;2024-03-08T01:00:22;101493.88;;;2.05;78.21
6208;BME280;3137;51.550;7.060;2024-03-08T01:02:48;101498.22;;;2.06;78.13
6208;BME280;3137;51.550;7.060;2024-03-08T01:05:15;101491.41;;;2.02;78.26
6208;BME280;3137;51.550;7.060;2024-03-08T01:07:41;101491.41;;;2.02;78.31
6208;BME280;3137;51.550;7.060;2024-03-08T01:10:08;101489.91;;;1.97;78.29
6208;BME280;3137;51.550;7.060;2024-03-08T01:12:38;101481.38;;;2.09;77.90
6208;BME280;3137;51.550;7.060;2024-03-08T01:15:05;101472.38;;;1.96;78.27
6208;BME280;3137;51.550;7.060;2024-03-08T01:17:32;101470.53;;;1.98;77.92
6208;BME280;3137;51.550;7.060;2024-03-08T01:19:58;101468.22;;;1.92;78.10
6208;BME280;3137;51.550;7.060;2024-03-08T01:22:25;101463.16;;;1.87;78.30
6208;BME280;3137;51.550;7.060;2024-03-08T01:24:51;101463.25;;;1.86;78.42
6208;BME280;3137;51.550;7.060;2024-03-08T01:27:17;101456.13;;;1.88;78.20
6208;BME280;3137;51.550;7.060;2024-03-08T01:29:44;101454.66;;;1.82;78.65
6208;BME280;3137;51.550;7.060;2024-03-08T01:32:10;101444.94;;;1.82;78.58
6208;BME280;3137;51.550;7.060;2024-03-08T01:34:38;101448.66;;;1.78;78.47
6208;BME280;3137;51.550;7.060;2024-03-08T01:37:04;101454.03;;;1.77;78.97
6208;BME280;3137;51.550;7.060;2024-03-08T01:39:31;101453.47;;;1.70;78.90
6208;BME280;3137;51.550;7.060;2024-03-08T01:41:59;101449.06;;;1.71;78.69
6208;BME280;3137;51.550;7.060;2024-03-08T01:44:27;101442.94;;;1.70;79.29
6208;BME280;3137;51.550;7.060;2024-03-08T01:46:53;101444.72;;;1.70;79.24
6208;BME280;3137;51.550;7.060;2024-03-08T01:49:20;101435.13;;;1.69;78.84
6208;BME280;3137;51.550;7.060;2024-03-08T01:51:51;101435.97;;;1.69;78.76
6208;BME280;3137;51.550;7.060;2024-03-08T01:54:19;101430.09;;;1.64;78.97
6208;BME280;3137;51.550;7.060;2024-03-08T01:56:46;101430.84;;;1.66;78.96
6208;BME280;3137;51.550;7.060;2024-03-08T01:59:13;101426.66;;;1.62;79.02
6208;BME280;3137;51.550;7.060;2024-03-08T02:01:41;101424.72;;;1.66;79.05
6208;BME280;3137;51.550;7.060;2024-03-08T02:04:07;101421.25;;;1.65;78.99
6208;BME280;3137;51.550;7.060;2024-03-08T02:06:34;101419.63;;;1.63;79.12
6208;BME280;3137;51.550;7.060;2024-03-08T02:09:01;101418.94;;;1.59;79.26
6208;BME280;3137;51.550;7.060;2024-03-08T02:11:33;101413.66;;;1.59;79.27
6208;BME280;3137;51.550;7.060;2024-03-08T02:14:00;101415.50;;;1.57;79.25
6208;BME280;3137;51.550;7.060;2024-03-08T02:16:26;101408.44;;;1.58;79.46
6208;BME280;3137;51.550;7.060;2024-03-08T02:18:53;101413.03;;;1.54;79.40
6208;BME280;3137;51.550;7.060;2024-03-08T02:21:20;101414.13;;;1.50;79.55
6208;BME280;3137;51.550;7.060;2024-03-08T02:23:47;101414.97;;;1.51;79.38
6208;BME280;3137;51.550;7.060;2024-03-08T02:26:13;101400.53;;;1.41;79.84
6208;BME280;3137;51.550;7.060;2024-03-08T02:28:40;101401.63;;;1.36;79.90
6208;BME280;3137;51.550;7.060;2024-03-08T02:31:09;101401.03;;;1.31;80.22
6208;BME280;3137;51.550;7.060;2024-03-08T02:33:35;101408.06;;;1.31;80.42
6208;BME280;3137;51.550;7.060;2024-03-08T02:36:02;101396.06;;;1.25;80.93
6208;BME280;3137;51.550;7.060;2024-03-08T02:38:29;101399.44;;;1.27;80.76
6208;BME280;3137;51.550;7.060;2024-03-08T02:40:55;101398.47;;;1.30;80.88
6208;BME280;3137;51.550;7.060;2024-03-08T02:43:22;101391.63;;;1.26;80.84
6208;BME280;3137;51.550;7.060;2024-03-08T02:45:49;101380.88;;;1.30;81.03
6208;BME280;3137;51.550;7.060;2024-03-08T02:48:16;101374.06;;;1.26;80.53
6208;BME280;3137;51.550;7.060;2024-03-08T02:50:43;101378.47;;;1.26;81.04
6208;BME280;3137;51.550;7.060;2024-03-08T02:53:13;101382.03;;;1.25;80.89
6208;BME280;3137;51.550;7.060;2024-03-08T02:55:41;101375.50;;;1.15;81.16
6208;BME280;3137;51.550;7.060;2024-03-08T02:58:08;101386.03;;;1.15;81.28
6208;BME280;3137;51.550;7.060;2024-03-08T03:00:37;101375.59;;;1.13;81.37
6208;BME280;3137;51.550;7.060;2024-03-08T03:03:05;101378.13;;;1.15;81.56
6208;BME280;3137;51.550;7.060;2024-03-08T03:05:33;101373.25;;;1.07;82.03
6208;BME280;3137;51.550;7.060;2024-03-08T03:08:02;101370.63;;;1.07;81.79
6208;BME280;3137;51.550;7.060;2024-03-08T03:10:36;101372.41;;;1.07;81.80
6208;BME280;3137;51.550;7.060;2024-03-08T03:13:02;101363.97;;;1.00;82.33
6208;BME280;3137;51.550;7.060;2024-03-08T03:15:30;101361.31;;;1.00;82.21
6208;BME280;3137;51.550;7.060;2024-03-08T03:17:57;101357.91;;;0.98;82.47
6208;BME280;3137;51.550;7.060;2024-03-08T03:20:23;101348.31;;;0.97;82.47
6208;BME280;3137;51.550;7.060;2024-03-08T03:22:53;101352.63;;;0.98;82.55
6208;BME280;3137;51.550;7.060;2024-03-08T03:25:20;101348.56;;;0.93;82.56
6208;BME280;3137;51.550;7.060;2024-03-08T03:27:52;101350.53;;;0.87;82.96
6208;BME280;3137;51.550;7.060;2024-03-08T03:30:19;101345.34;;;0.86;83.11
6208;BME280;3137;51.550;7.060;2024-03-08T03:32:49;101344.19;;;0.91;83.09
6208;BME280;3137;51.550;7.060;2024-03-08T03:35:18;101344.19;;;0.91;82.97
6208;BME280;3137;51.550;7.060;2024-03-08T03:37:44;101343.34;;;0.91;83.24
6208;BME280;3137;51.550;7.060;2024-03-08T03:40:17;101334.75;;;0.87;83.13
6208;BME280;3137;51.550;7.060;2024-03-08T03:42:46;101333.84;;;0.88;83.13
6208;BME280;3137;51.550;7.060;2024-03-08T03:45:13;101333.75;;;0.90;82.95
6208;BME280;3137;51.550;7.060;2024-03-08T03:47:42;101330.25;;;0.89;83.06
6208;BME280;3137;51.550;7.060;2024-03-08T03:50:09;101320.69;;;0.88;82.92
6208;BME280;3137;51.550;7.060;2024-03-08T03:52:36;101324.28;;;0.86;83.16
6208;BME280;3137;51.550;7.060;2024-03-08T03:55:04;101320.03;;;0.83;83.28
6208;BME280;3137;51.550;7.060;2024-03-08T03:57:31;101323.53;;;0.84;83.33
6208;BME280;3137;51.550;7.060;2024-03-08T03:59:57;101327.16;;;0.81;83.45
6208;BME280;3137;51.550;7.060;2024-03-08T04:02:38;101328.91;;;0.81;83.33
6208;BME280;3137;51.550;7.060;2024-03-08T04:05:05;101324.69;;;0.78;83.74
6208;BME280;3137;51.550;7.060;2024-03-08T04:07:33;101322.91;;;0.79;83.48
6208;BME280;3137;51.550;7.060;2024-03-08T04:10:04;101317.91;;;0.73;84.01
6208;BME280;3137;51.550;7.060;2024-03-08T04:12:35;101319.69;;;0.72;83.85
6208;BME280;3137;51.550;7.060;2024-03-08T04:15:02;101317.31;;;0.68;83.93
6208;BME280;3137;51.550;7.060;2024-03-08T04:17:29;101317.00;;;0.74;83.77
6208;BME280;3137;51.550;7.060;2024-03-08T04:19:55;101318.00;;;0.71;84.01
6208;BME280;3137;51.550;7.060;2024-03-08T04:22:23;101310.88;;;0.73;83.86
6208;BME280;3137;51.550;7.060;2024-03-08T04:24:49;101313.44;;;0.75;83.63
6208;BME280;3137;51.550;7.060;2024-03-08T04:27:16;101306.47;;;0.74;83.76
6208;BME280;3137;51.550;7.060;2024-03-08T04:29:42;101315.31;;;0.90;83.52
6208;BME280;3137;51.550;7.060;2024-03-08T04:32:09;101305.34;;;0.79;83.27
6208;BME280;3137;51.550;7.060;2024-03-08T04:34:36;101315.22;;;0.74;83.66
6208;BME280;3137;51.550;7.060;2024-03-08T04:37:03;101311.97;;;0.69;83.86
6208;BME280;3137;51.550;7.060;2024-03-08T04:39:31;101304.91;;;0.70;84.15
6208;BME280;3137;51.550;7.060;2024-03-08T04:41:59;101312.53;;;0.76;83.67
6208;BME280;3137;51.550;7.060;2024-03-08T04:44:32;101307.28;;;0.76;83.44
6208;BME280;3137;51.550;7.060;2024-03-08T04:47:00;101303.22;;;0.69;83.63
6208;BME280;3137;51.550;7.060;2024-03-08T04:49:27;101294.69;;;0.64;84.09
6208;BME280;3137;51.550;7.060;2024-03-08T04:51:54;101299.13;;;0.63;84.08
6208;BME280;3137;51.550;7.060;2024-03-08T04:54:21;101292.16;;;0.62;84.33
6208;BME280;3137;51.550;7.060;2024-03-08T04:56:47;101289.59;;;0.61;83.92
6208;BME280;3137;51.550;7.060;2024-03-08T04:59:14;101286.09;;;0.60;84.09
6208;BME280;3137;51.550;7.060;2024-03-08T05:01:40;101285.34;;;0.58;84.57
6208;BME280;3137;51.550;7.060;2024-03-08T05:04:07;101294.16;;;0.57;84.40
6208;BME280;3137;51.550;7.060;2024-03-08T05:06:35;101279.38;;;0.55;84.26
6208;BME280;3137;51.550;7.060;2024-03-08T05:09:02;101288.66;;;0.62;84.16
6208;BME280;3137;51.550;7.060;2024-03-08T05:11:46;101276.53;;;0.59;84.09
6208;BME280;3137;51.550;7.060;2024-03-08T05:14:14;101275.72;;;0.57;84.30
6208;BME280;3137;51.550;7.060;2024-03-08T05:16:46;101278.59;;;0.53;84.31
6208;BME280;3137;51.550;7.060;2024-03-08T05:19:17;101274.19;;;0.53;84.28
6208;BME280;3137;51.550;7.060;2024-03-08T05:21:48;101277.81;;;0.51;84.54
6208;BME280;3137;51.550;7.060;2024-03-08T05:24:15;101273.69;;;0.45;84.84
6208;BME280;3137;51.550;7.060;2024-03-08T05:26:43;101283.09;;;0.51;84.97
6208;BME280;3137;51.550;7.060;2024-03-08T05:29:10;101276.34;;;0.45;85.25
6208;BME280;3137;51.550;7.060;2024-03-08T05:31:48;101271.28;;;0.40;85.18
6208;BME280;3137;51.550;7.060;2024-03-08T05:34:16;101265.59;;;0.50;85.17
6208;BME280;3137;51.550;7.060;2024-03-08T05:36:43;101266.78;;;0.42;84.61
6208;BME280;3137;51.550;7.060;2024-03-08T05:39:13;101272.31;;;0.38;84.83
6208;BME280;3137;51.550;7.060;2024-03-08T05:41:40;101266.19;;;0.37;85.04
6208;BME280;3137;51.550;7.060;2024-03-08T05:44:07;101267.16;;;0.35;85.29
6208;BME280;3137;51.550;7.060;2024-03-08T05:46:34;101272.41;;;0.35;85.29
6208;BME280;3137;51.550;7.060;2024-03-08T05:49:06;101265.31;;;0.37;85.35
6208;BME280;3137;51.550;7.060;2024-03-08T05:51:33;101263.91;;;0.30;85.31
6208;BME280;3137;51.550;7.060;2024-03-08T05:54:04;101265.75;;;0.28;85.72
6208;BME280;3137;51.550;7.060;2024-03-08T05:56:32;101264.69;;;0.32;85.33
6208;BME280;3137;51.550;7.060;2024-03-08T05:58:59;101262.69;;;0.37;85.86
6208;BME280;3137;51.550;7.060;2024-03-08T06:01:26;101264.53;;;0.35;85.58
6208;BME280;3137;51.550;7.060;2024-03-08T06:03:53;101259.97;;;0.38;85.52
6208;BME280;3137;51.550;7.060;2024-03-08T06:06:23;101261.91;;;0.35;85.37
6208;BME280;3137;51.550;7.060;2024-03-08T06:08:50;101261.06;;;0.34;85.45
6208;BME280;3137;51.550;7.060;2024-03-08T06:11:18;101260.22;;;0.34;86.03
6208;BME280;3137;51.550;7.060;2024-03-08T06:13:45;101254.00;;;0.35;85.63
6208;BME280;3137;51.550;7.060;2024-03-08T06:16:12;101256.81;;;0.32;85.93
6208;BME280;3137;51.550;7.060;2024-03-08T06:18:39;101255.78;;;0.34;85.82
6208;BME280;3137;51.550;7.060;2024-03-08T06:21:08;101262.00;;;0.33;85.53
6208;BME280;3137;51.550;7.060;2024-03-08T06:23:35;101254.38;;;0.27;86.14
6208;BME280;3137;51.550;7.060;2024-03-08T06:26:05;101255.09;;;0.31;86.31
6208;BME280;3137;51.550;7.060;2024-03-08T06:28:32;101250.31;;;0.39;85.67
6208;BME280;3137;51.550;7.060;2024-03-08T06:30:59;101246.75;;;0.40;86.02
6208;BME280;3137;51.550;7.060;2024-03-08T06:33:25;101250.25;;;0.40;85.69
6208;BME280;3137;51.550;7.060;2024-03-08T06:35:55;101243.84;;;0.46;86.13
6208;BME280;3137;51.550;7.060;2024-03-08T06:38:24;101251.00;;;0.42;86.06
6208;BME280;3137;51.550;7.060;2024-03-08T06:40:54;101249.88;;;0.48;85.95
6208;BME280;3137;51.550;7.060;2024-03-08T06:43:21;101246.94;;;0.54;86.13
6208;BME280;3137;51.550;7.060;2024-03-08T06:45:47;101245.72;;;0.61;85.76
6208;BME280;3137;51.550;7.060;2024-03-08T06:48:19;101253.31;;;0.67;85.25
6208;BME280;3137;51.550;7.060;2024-03-08T06:50:46;101251.44;;;0.69;85.43
6208;BME280;3137;51.550;7.060;2024-03-08T06:53:13;101252.06;;;0.74;85.04
6208;BME280;3137;51.550;7.060;2024-03-08T06:55:40;101249.75;;;0.85;85.03
6208;BME280;3137;51.550;7.060;2024-03-08T06:58:06;101250.47;;;0.89;84.63
6208;BME280;3137;51.550;7.060;2024-03-08T07:00:33;101251.16;;;0.93;84.47
6208;BME280;3137;51.550;7.060;2024-03-08T07:03:00;101251.78;;;0.98;84.28
6208;BME280;3137;51.550;7.060;2024-03-08T07:05:30;101255.00;;;1.03;84.16
6208;BME280;3137;51.550;7.060;2024-03-08T07:07:57;101252.84;;;1.11;83.70
6208;BME280;3137;51.550;7.060;2024-03-08T07:10:24;101251.28;;;1.24;83.68
6208;BME280;3137;51.550;7.060;2024-03-08T07:12:52;101245.75;;;1.28;83.33
6208;BME280;3137;51.550;7.060;2024-03-08T07:15:19;101252.56;;;1.32;82.89
6208;BME280;3137;51.550;7.060;2024-03-08T07:17:47;101255.81;;;1.37;82.67
6208;BME280;3137;51.550;7.060;2024-03-08T07:20:14;101254.66;;;1.43;82.50
6208;BME280;3137;51.550;7.060;2024-03-08T07:22:42;101256.72;;;1.54;82.26
6208;BME280;3137;51.550;7.060;2024-03-08T07:25:12;101255.78;;;1.55;82.11
6208;BME280;3137;51.550;7.060;2024-03-08T07:30:14;101253.28;;;1.69;81.63
6208;BME280;3137;51.550;7.060;2024-03-08T07:33:01;101256.25;;;1.78;80.83
6208;BME280;3137;51.550;7.060;2024-03-08T07:35:29;101253.47;;;1.81;81.12
6208;BME280;3137;51.550;7.060;2024-03-08T07:37:55;101248.63;;;1.90;81.38
6208;BME280;3137;51.550;7.060;2024-03-08T07:40:22;101244.72;;;1.97;81.01
6208;BME280;3137;51.550;7.060;2024-03-08T07:42:49;101250.84;;;1.97;80.27
6208;BME280;3137;51.550;7.060;2024-03-08T07:45:16;101245.38;;;2.00;80.70
6208;BME280;3137;51.550;7.060;2024-03-08T07:47:43;101253.72;;;2.08;80.16
6208;BME280;3137;51.550;7.060;2024-03-08T07:50:10;101239.97;;;2.19;80.18
6208;BME280;3137;51.550;7.060;2024-03-08T07:52:36;101244.06;;;2.24;79.78
6208;BME280;3137;51.550;7.060;2024-03-08T07:55:03;101235.94;;;2.27;79.05
6208;BME280;3137;51.550;7.060;2024-03-08T07:57:32;101246.44;;;2.29;79.16
6208;BME280;3137;51.550;7.060;2024-03-08T07:59:59;101234.41;;;2.39;79.07
6208;BME280;3137;51.550;7.060;2024-03-08T08:02:25;101236.19;;;2.54;78.57
6208;BME280;3137;51.550;7.060;2024-03-08T08:04:52;101227.72;;;2.63;78.63
6208;BME280;3137;51.550;7.060;2024-03-08T08:07:18;101224.53;;;2.72;78.15
6208;BME280;3137;51.550;7.060;2024-03-08T08:09:45;101218.66;;;2.83;77.94
6208;BME280;3137;51.550;7.060;2024-03-08T08:12:12;101219.13;;;2.90;77.73
6208;BME280;3137;51.550;7.060;2024-03-08T08:14:38;101212.56;;;2.97;77.55
6208;BME280;3137;51.550;7.060;2024-03-08T08:17:05;101213.28;;;2.99;76.89
6208;BME280;3137;51.550;7.060;2024-03-08T08:19:35;101211.81;;;3.09;76.80
6208;BME280;3137;51.550;7.060;2024-03-08T08:22:04;101207.84;;;3.16;76.43
6208;BME280;3137;51.550;7.060;2024-03-08T08:24:31;101207.13;;;3.14;75.78
6208;BME280;3137;51.550;7.060;2024-03-08T08:26:58;101200.03;;;3.29;76.34
6208;BME280;3137;51.550;7.060;2024-03-08T08:29:24;101195.69;;;3.42;75.68
6208;BME280;3137;51.550;7.060;2024-03-08T08:31:51;101189.44;;;3.57;74.96
6208;BME280;3137;51.550;7.060;2024-03-08T08:34:18;101174.50;;;3.70;75.22
6208;BME280;3137;51.550;7.060;2024-03-08T08:36:45;101187.44;;;3.89;75.13
6208;BME280;3137;51.550;7.060;2024-03-08T08:39:12;101177.00;;;4.00;73.67
6208;BME280;3137;51.550;7.060;2024-03-08T08:41:43;101171.69;;;4.14;74.27
6208;BME280;3137;51.550;7.060;2024-03-08T08:44:10;101171.50;;;4.30;73.93
6208;BME280;3137;51.550;7.060;2024-03-08T08:46:42;101171.47;;;4.44;72.90
6208;BME280;3137;51.550;7.060;2024-03-08T08:49:08;101155.06;;;4.51;72.41
6208;BME280;3137;51.550;7.060;2024-03-08T08:51:37;101162.94;;;4.66;70.99
6208;BME280;3137;51.550;7.060;2024-03-08T08:54:03;101155.88;;;4.79;71.98
6208;BME280;3137;51.550;7.060;2024-03-08T08:56:31;101155.56;;;4.96;71.89
6208;BME280;3137;51.550;7.060;2024-03-08T08:58:57;101153.94;;;5.19;70.83
6208;BME280;3137;51.550;7.060;2024-03-08T09:01:24;101155.25;;;5.13;69.87
6208;BME280;3137;51.550;7.060;2024-03-08T09:03:50;101150.88;;;5.25;69.97
6208;BME280;3137;51.550;7.060;2024-03-08T09:06:18;101141.97;;;5.38;69.49
6208;BME280;3137;51.550;7.060;2024-03-08T09:08:44;101142.91;;;5.50;68.47
6208;BME280;3137;51.550;7.060;2024-03-08T09:11:12;101136.19;;;5.57;68.15
6208;BME280;3137;51.550;7.060;2024-03-08T09:13:38;101124.63;;;5.58;67.74
6208;BME280;3137;51.550;7.060;2024-03-08T09:16:05;101129.47;;;5.77;67.50
6208;BME280;3137;51.550;7.060;2024-03-08T09:18:32;101116.94;;;5.79;66.64
6208;BME280;3137;51.550;7.060;2024-03-08T09:20:59;101116.91;;;5.91;67.01
6208;BME280;3137;51.550;7.060;2024-03-08T09:23:26;101111.88;;;6.00;66.30
6208;BME280;3137;51.550;7.060;2024-03-08T09:25:56;101106.84;;;6.08;66.52
6208;BME280;3137;51.550;7.060;2024-03-08T09:28:26;101106.06;;;6.18;64.32
6208;BME280;3137;51.550;7.060;2024-03-08T09:30:53;101102.50;;;6.30;66.55
6208;BME280;3137;51.550;7.060;2024-03-08T09:33:25;101101.31;;;6.34;64.87
6208;BME280;3137;51.550;7.060;2024-03-08T09:35:53;101098.91;;;6.42;65.04
6208;BME280;3137;51.550;7.060;2024-03-08T09:38:19;101095.03;;;6.35;64.00
6208;BME280;3137;51.550;7.060;2024-03-08T09:40:47;101089.84;;;6.45;64.15
6208;BME280;3137;51.550;7.060;2024-03-08T09:43:14;101090.84;;;6.44;64.00
6208;BME280;3137;51.550;7.060;2024-03-08T09:45:41;101089.16;;;6.54;64.04
6208;BME280;3137;51.550;7.060;2024-03-08T09:48:11;101086.66;;;6.53;63.45
6208;BME280;3137;51.550;7.060;2024-03-08T09:50:40;101080.16;;;6.68;63.22
6208;BME280;3137;51.550;7.060;2024-03-08T09:53:11;101073.97;;;6.67;63.14
6208;BME280;3137;51.550;7.060;2024-03-08T09:55:38;101068.91;;;6.64;62.72
6208;BME280;3137;51.550;7.060;2024-03-08T09:58:10;101062.16;;;6.71;64.28
6208;BME280;3137;51.550;7.060;2024-03-08T10:00:54;101059.63;;;6.70;62.42
6208;BME280;3137;51.550;7.060;2024-03-08T10:03:23;101052.63;;;6.80;64.19
6208;BME280;3137;51.550;7.060;2024-03-08T10:05:50;101052.50;;;6.93;61.78
6208;BME280;3137;51.550;7.060;2024-03-08T10:08:16;101039.97;;;6.95;62.15
6208;BME280;3137;51.550;7.060;2024-03-08T10:10:42;101049.97;;;7.02;61.58
6208;BME280;3137;51.550;7.060;2024-03-08T10:13:10;101045.28;;;6.95;61.65
6208;BME280;3137;51.550;7.060;2024-03-08T10:15:39;101048.88;;;6.94;60.75
6208;BME280;3137;51.550;7.060;2024-03-08T10:18:06;101042.25;;;6.99;61.21
6208;BME280;3137;51.550;7.060;2024-03-08T10:20:33;101033.88;;;7.26;61.71
6208;BME280;3137;51.550;7.060;2024-03-08T10:23:00;101032.69;;;7.19;60.67
6208;BME280;3137;51.550;7.060;2024-03-08T10:25:37;101030.25;;;7.27;60.60
6208;BME280;3137;51.550;7.060;2024-03-08T10:28:04;101027.22;;;7.31;60.26
6208;BME280;3137;51.550;7.060;2024-03-08T10:30:31;101025.16;;;7.35;60.94
6208;BME280;3137;51.550;7.060;2024-03-08T10:32:58;101022.13;;;7.40;60.41
6208;BME280;3137;51.550;7.060;2024-03-08T10:35:25;101024.03;;;7.60;59.78
6208;BME280;3137;51.550;7.060;2024-03-08T10:37:55;101027.63;;;7.70;59.97
6208;BME280;3137;51.550;7.060;2024-03-08T10:40:27;101023.47;;;7.77;58.88
6208;BME280;3137;51.550;7.060;2024-03-08T10:42:56;101011.38;;;7.84;59.14
6208;BME280;3137;51.550;7.060;2024-03-08T10:45:30;101016.13;;;7.80;59.08
6208;BME280;3137;51.550;7.060;2024-03-08T10:48:14;101010.78;;;7.80;60.46
6208;BME280;3137;51.550;7.060;2024-03-08T10:50:44;101012.84;;;7.77;58.80
6208;BME280;3137;51.550;7.060;2024-03-08T10:53:15;101000.00;;;7.82;59.70
6208;BME280;3137;51.550;7.060;2024-03-08T10:55:42;101002.06;;;7.78;59.32
6208;BME280;3137;51.550;7.060;2024-03-08T10:58:10;100993.72;;;7.83;60.33
6208;BME280;3137;51.550;7.060;2024-03-08T11:00:37;100992.22;;;8.11;59.60
6208;BME280;3137;51.550;7.060;2024-03-08T11:03:04;100981.78;;;8.19;58.52
6208;BME280;3137;51.550;7.060;2024-03-08T11:05:37;100985.25;;;8.31;57.88
6208;BME280;3137;51.550;7.060;2024-03-08T11:10:51;100974.81;;;8.27;58.30
6208;BME280;3137;51.550;7.060;2024-03-08T11:13:33;100967.09;;;8.45;59.59
6208;BME280;3137;51.550;7.060;2024-03-08T11:16:02;100961.03;;;8.34;58.78
6208;BME280;3137;51.550;7.060;2024-03-08T11:18:33;100952.41;;;8.51;57.70
6208;BME280;3137;51.550;7.060;2024-03-08T11:21:19;100957.47;;;8.54;57.17
6208;BME280;3137;51.550;7.060;2024-03-08T11:24:01;100954.06;;;8.42;58.50
6208;BME280;3137;51.550;7.060;2024-03-08T11:26:29;100947.38;;;8.48;58.26
6208;BME280;3137;51.550;7.060;2024-03-08T11:34:36;100923.38;;;8.48;57.86
6208;BME280;3137;51.550;7.060;2024-03-08T11:37:10;100933.31;;;8.46;58.30
6208;BME280;3137;51.550;7.060;2024-03-08T11:39:39;100918.50;;;8.53;58.64
6208;BME280;3137;51.550;7.060;2024-03-08T11:42:06;100926.03;;;8.78;57.87
6208;BME280;3137;51.550;7.060;2024-03-08T11:44:33;100909.03;;;8.79;57.40
6208;BME280;3137;51.550;7.060;2024-03-08T11:46:59;100913.47;;;8.99;57.82
6208;BME280;3137;51.550;7.060;2024-03-08T11:49:26;100897.34;;;9.10;56.02
6208;BME280;3137;51.550;7.060;2024-03-08T11:51:52;100891.44;;;9.16;56.36
6208;BME280;3137;51.550;7.060;2024-03-08T11:54:22;100898.16;;;9.01;55.81
6208;BME280;3137;51.550;7.060;2024-03-08T11:56:51;100895.97;;;9.16;57.19
6208;BME280;3137;51.550;7.060;2024-03-08T11:59:18;100892.31;;;9.27;55.14
6208;BME280;3137;51.550;7.060;2024-03-08T12:02:01;100883.03;;;9.21;55.87
6208;BME280;3137;51.550;7.060;2024-03-08T12:04:28;100878.41;;;9.23;55.68
6208;BME280;3137;51.550;7.060;2024-03-08T12:06:55;100868.31;;;9.46;55.66
6208;BME280;3137;51.550;7.060;2024-03-08T12:09:21;100866.16;;;9.69;55.54
6208;BME280;3137;51.550;7.060;2024-03-08T12:11:48;100852.81;;;9.88;56.20
6208;BME280;3137;51.550;7.060;2024-03-08T12:14:15;100844.06;;;9.95;55.27
6208;BME280;3137;51.550;7.060;2024-03-08T12:16:41;100850.44;;;9.75;54.63
6208;BME280;3137;51.550;7.060;2024-03-08T12:19:09;100847.72;;;9.94;55.55
6208;BME280;3137;51.550;7.060;2024-03-08T12:21:36;100839.47;;;9.78;54.03
6208;BME280;3137;51.550;7.060;2024-03-08T12:24:04;100836.66;;;9.70;55.18
6208;BME280;3137;51.550;7.060;2024-03-08T12:26:31;100819.19;;;9.95;56.24
6208;BME280;3137;51.550;7.060;2024-03-08T12:29:18;100822.81;;;9.94;53.58
6208;BME280;3137;51.550;7.060;2024-03-08T12:31:47;100819.84;;;10.06;54.22
6208;BME280;3137;51.550;7.060;2024-03-08T12:34:14;100810.53;;;10.10;52.63
6208;BME280;3137;51.550;7.060;2024-03-08T12:36:52;100803.06;;;10.24;53.67
6208;BME280;3137;51.550;7.060;2024-03-08T12:39:21;100800.84;;;10.19;52.63
6208;BME280;3137;51.550;7.060;2024-03-08T12:41:49;100794.06;;;10.25;52.56
6208;BME280;3137;51.550;7.060;2024-03-08T12:44:19;100792.56;;;10.40;52.30
6208;BME280;3137;51.550;7.060;2024-03-08T12:46:48;100790.47;;;10.43;52.15
6208;BME280;3137;51.550;7.060;2024-03-08T12:49:18;100778.69;;;10.36;51.66
6208;BME280;3137;51.550;7.060;2024-03-08T12:51:44;100775.47;;;10.60;51.92
6208;BME280;3137;51.550;7.060;2024-03-08T12:54:12;100769.50;;;10.84;51.62
6208;BME280;3137;51.550;7.060;2024-03-08T12:56:38;100770.34;;;11.02;51.22
6208;BME280;3137;51.550;7.060;2024-03-08T12:59:09;100767.16;;;10.98;49.75
6208;BME280;3137;51.550;7.060;2024-03-08T13:01:36;100747.47;;;11.08;50.78
6208;BME280;3137;51.550;7.060;2024-03-08T13:04:06;100740.34;;;11.34;48.80
6208;BME280;3137;51.550;7.060;2024-03-08T13:06:33;100744.75;;;11.43;48.59
6208;BME280;3137;51.550;7.060;2024-03-08T13:08:59;100741.44;;;11.23;46.27
6208;BME280;3137;51.550;7.060;2024-03-08T13:11:32;100738.19;;;11.12;44.99
6208;BME280;3137;51.550;7.060;2024-03-08T13:14:03;100727.09;;;11.07;45.68
6208;BME280;3137;51.550;7.060;2024-03-08T13:16:31;100717.88;;;11.27;46.40
6208;BME280;3137;51.550;7.060;2024-03-08T13:18:58;100716.84;;;11.20;44.89
6208;BME280;3137;51.550;7.060;2024-03-08T13:21:25;100715.66;;;11.22;44.19
6208;BME280;3137;51.550;7.060;2024-03-08T13:23:52;100716.84;;;11.20;46.02
6208;BME280;3137;51.550;7.060;2024-03-08T13:26:20;100710.94;;;11.16;45.34
6208;BME280;3137;51.550;7.060;2024-03-08T13:28:48;100705.50;;;11.26;45.40
6208;BME280;3137;51.550;7.060;2024-03-08T13:31:23;100705.81;;;11.23;44.33
6208;BME280;3137;51.550;7.060;2024-03-08T13:33:49;100700.84;;;11.28;45.19
6208;BME280;3137;51.550;7.060;2024-03-08T13:36:18;100693.94;;;11.51;44.36